Time;durP1;ratioP1;P1;durP2;ratioP2;P2;SDS_P1;SDS_P2;PMS_P1;PMS_P2;Temp;Humidity;BMP_temperature;BMP_pressure;BME280_temperature;BME280_humidity;BME280_pressure;Samples;Min_cycle;Max_cycle;Signal;HPM_P1;HPM_P2
2022/07/03 00:06:21;;;;;;;5.97;2.77;;;19.40;73.30;;;;;;20993650;28;20735;-71
2022/07/03 00:16:23;;;;;;;3.57;2.43;;;19.40;74.40;;;;;;20991702;28;20201;-71
2022/07/03 00:26:29;;;;;;;3.10;2.13;;;19.20;74.60;;;;;;20994055;28;20235;-72
2022/07/03 00:36:37;;;;;;;5.67;2.83;;;19.20;74.40;;;;;;20993187;28;20207;-72
2022/07/03 00:46:41;;;;;;;5.63;2.80;;;19.10;74.30;;;;;;20992530;28;20245;-72
2022/07/03 00:56:50;;;;;;;5.37;3.40;;;19.00;74.60;;;;;;20992553;28;20675;-73
2022/07/03 01:06:59;;;;;;;6.03;2.93;;;19.00;75.40;;;;;;21006401;28;20237;-72
2022/07/03 01:17:08;;;;;;;4.37;2.20;;;18.90;75.60;;;;;;21006053;28;20212;-74
2022/07/03 01:27:30;;;;;;;2.40;2.17;;;18.70;76.70;;;;;;21005344;28;20237;-71
2022/07/03 01:37:35;;;;;;;2.37;2.13;;;18.50;78.20;;;;;;21005033;28;20208;-71
2022/07/03 01:47:41;;;;;;;4.77;2.23;;;18.20;79.50;;;;;;21003750;28;20260;-71
2022/07/03 01:57:48;;;;;;;4.03;2.30;;;17.90;80.30;;;;;;21002907;28;20209;-72
2022/07/03 02:08:00;;;;;;;2.37;2.17;;;17.60;81.70;;;;;;21001778;28;20238;-70
2022/07/03 02:18:18;;;;;;;4.43;2.10;;;17.50;82.80;;;;;;20998920;28;20692;-72
2022/07/03 02:28:30;;;;;;;7.33;2.40;;;17.50;83.40;;;;;;21016167;28;20239;-70
2022/07/03 02:38:31;;;;;;;2.37;2.10;;;17.30;84.10;;;;;;21010238;28;20564;-71
2022/07/03 02:48:41;;;;;;;3.40;2.10;;;17.30;85.00;;;;;;20998699;28;20269;-71
2022/07/03 02:58:57;;;;;;;2.37;1.90;;;17.30;85.40;;;;;;20998452;28;20580;-72
2022/07/03 03:09:04;;;;;;;2.93;2.20;;;17.30;86.10;;;;;;20997672;28;20609;-71
2022/07/03 03:19:06;;;;;;;5.70;2.30;;;17.30;86.30;;;;;;20996977;28;20277;-71
2022/07/03 03:29:08;;;;;;;2.67;2.17;;;17.10;87.10;;;;;;20977532;28;20203;-72
2022/07/03 03:39:09;;;;;;;4.43;2.30;;;17.00;87.60;;;;;;20994537;28;20223;-71
2022/07/03 03:49:11;;;;;;;2.50;2.30;;;17.00;88.40;;;;;;20995096;28;20287;-71
2022/07/03 03:59:13;;;;;;;4.20;3.00;;;17.00;89.00;;;;;;20995045;28;20226;-72
2022/07/03 04:09:14;;;;;;;2.77;2.30;;;17.00;89.30;;;;;;20993787;28;20207;-73
2022/07/03 04:19:16;;;;;;;4.60;2.50;;;16.90;89.70;;;;;;20991711;28;20261;-72
2022/07/03 04:29:18;;;;;;;6.47;3.17;;;17.00;90.10;;;;;;20995998;28;20214;-72
2022/07/03 04:39:20;;;;;;;3.80;2.40;;;17.00;90.30;;;;;;21021384;28;20272;-71
2022/07/03 04:49:21;;;;;;;3.77;2.63;;;17.20;90.40;;;;;;21020634;28;20237;-72
2022/07/03 04:59:23;;;;;;;3.57;2.90;;;17.20;90.60;;;;;;21008280;28;20292;-71
2022/07/03 05:09:25;;;;;;;4.30;3.37;;;17.40;91.10;;;;;;21007141;28;20260;-71
2022/07/03 05:19:26;;;;;;;3.10;2.80;;;17.60;90.80;;;;;;21006242;28;20246;-71
2022/07/03 05:29:28;;;;;;;12.80;6.63;;;17.70;90.30;;;;;;21005226;28;20678;-71
2022/07/03 05:39:34;;;;;;;5.80;4.03;;;17.70;90.10;;;;;;21004869;28;20265;-71
2022/07/03 05:49:36;;;;;;;4.27;3.40;;;18.00;90.10;;;;;;20985412;28;20222;-72
2022/07/03 05:59:38;;;;;;;5.43;3.73;;;18.20;89.90;;;;;;21003200;28;20236;-69
2022/07/03 06:09:40;;;;;;;6.53;2.60;;;18.50;89.70;;;;;;21027716;28;20204;-73
2022/07/03 06:19:42;;;;;;;4.07;2.40;;;18.90;89.30;;;;;;21082382;28;20241;-75
2022/07/03 06:29:45;;;;;;;3.40;2.43;;;19.20;88.40;;;;;;21084469;28;20208;-79
2022/07/03 06:39:47;;;;;;;2.90;2.43;;;19.60;87.60;;;;;;21082298;28;20275;-78
2022/07/03 06:49:48;;;;;;;3.00;2.30;;;19.90;86.70;;;;;;21080566;28;20224;-78
2022/07/03 06:59:50;;;;;;;3.47;2.27;;;20.30;85.90;;;;;;21079048;28;20287;-75
2022/07/03 07:09:52;;;;;;;7.57;2.50;;;20.60;85.10;;;;;;21079849;28;20213;-71
2022/07/03 07:19:55;;;;;;;5.33;2.03;;;21.00;84.50;;;;;;21084960;28;20244;-72
2022/07/03 07:29:57;;;;;;;5.37;2.17;;;21.40;83.90;;;;;;21104873;28;20203;-69
2022/07/03 07:39:59;;;;;;;2.83;1.87;;;21.80;82.80;;;;;;21080107;28;20241;-73
2022/07/03 07:50:01;;;;;;;2.33;2.10;;;22.10;82.00;;;;;;21079581;28;20214;-74
2022/07/03 08:00:21;;;;;;;5.20;2.07;;;22.50;80.90;;;;;;21078342;28;20230;-71
2022/07/03 08:10:23;;;;;;;2.73;2.30;;;22.90;79.90;;;;;;21053995;28;20757;-71
2022/07/03 08:20:25;;;;;;;4.23;1.90;;;23.20;78.80;;;;;;21008817;28;20234;-71
2022/07/03 08:30:27;;;;;;;3.40;1.73;;;23.50;76.80;;;;;;21008866;28;20200;-70
2022/07/03 08:40:31;;;;;;;5.20;1.63;;;23.80;75.40;;;;;;21007969;28;20239;-70
2022/07/03 08:50:34;;;;;;;3.10;2.30;;;24.10;73.80;;;;;;20986271;28;20598;-73
2022/07/03 09:00:37;;;;;;;5.47;3.90;;;24.30;72.80;;;;;;21005863;28;20239;-72
2022/07/03 09:10:38;;;;;;;4.33;2.00;;;24.50;71.60;;;;;;21006862;28;20207;-69
2022/07/03 09:20:41;;;;;;;2.40;1.50;;;24.70;70.40;;;;;;21005484;28;20339;-71
2022/07/03 09:30:57;;;;;;;5.37;1.90;;;24.90;69.30;;;;;;21005252;28;20637;-72
2022/07/03 09:41:01;;;;;;;2.43;1.83;;;25.20;68.00;;;;;;21004567;28;20237;-71
2022/07/03 09:51:23;;;;;;;2.80;1.93;;;25.40;64.80;;;;;;21004361;28;20214;-72
2022/07/03 10:01:25;;;;;;;5.77;1.70;;;25.70;61.70;;;;;;21002941;28;20318;-71
2022/07/03 10:11:28;;;;;;;3.00;2.10;;;25.90;59.90;;;;;;20984984;28;20204;-68
2022/07/03 10:21:35;;;;;;;4.00;1.40;;;26.00;58.90;;;;;;21002037;28;20264;-70
2022/07/03 10:31:38;;;;;;;1.60;1.50;;;26.30;58.10;;;;;;21000287;28;20225;-68
2022/07/03 10:52:06;;;;;;;1.50;1.40;;;26.80;55.50;;;;;;20998911;28;20203;-69
2022/07/03 11:02:36;;;;;;;1.77;1.63;;;27.10;53.70;;;;;;20997693;28;20249;-68
2022/07/03 11:12:56;;;;;;;2.33;1.30;;;27.20;52.90;;;;;;21000602;28;20236;-71
2022/07/03 11:23:23;;;;;;;5.37;1.27;;;27.30;52.40;;;;;;20979158;28;20231;-70
2022/07/03 11:33:47;;;;;;;2.43;1.30;;;27.40;51.90;;;;;;20996270;28;20210;-72
2022/07/03 11:43:52;;;;;;;2.63;1.20;;;27.50;50.20;;;;;;20994756;28;20782;-70
2022/07/03 11:53:53;;;;;;;3.73;1.00;;;27.80;49.80;;;;;;20995402;28;20662;-73
2022/07/03 12:04:18;;;;;;;3.97;1.90;;;27.90;48.80;;;;;;20994825;28;20242;-70
2022/07/03 12:14:48;;;;;;;2.15;1.13;;;28.20;47.90;;;;;;21024406;28;20199;-72
2022/07/03 12:25:08;;;;;;;2.88;1.20;;;28.40;47.10;;;;;;21035886;28;20578;-74
2022/07/03 12:35:10;;;;;;;1.98;1.10;;;28.70;46.30;;;;;;20994695;28;20214;-70
2022/07/03 12:45:14;;;;;;;5.63;1.20;;;28.90;45.60;;;;;;20991559;28;20368;-69
2022/07/03 12:55:28;;;;;;;3.00;0.90;;;28.90;45.50;;;;;;20978859;28;20215;-72
2022/07/03 13:05:30;;;;;;;3.25;1.10;;;28.80;45.10;;;;;;21008042;28;20239;-70
2022/07/03 13:15:32;;;;;;;1.58;1.48;;;28.70;45.00;;;;;;21006706;28;20214;-70
2022/07/03 13:25:39;;;;;;;1.02;0.90;;;28.70;44.90;;;;;;21005883;28;20246;-67
2022/07/03 13:35:40;;;;;;;3.05;1.08;;;28.70;45.10;;;;;;21005546;28;20207;-69
2022/07/03 13:45:43;;;;;;;1.70;1.08;;;28.60;45.00;;;;;;21004947;28;20254;-71
2022/07/03 13:55:45;;;;;;;2.60;0.98;;;28.70;45.00;;;;;;21004244;28;20289;-69
2022/07/03 14:05:50;;;;;;;0.80;0.80;;;28.80;44.90;;;;;;21002942;28;20240;-67
2022/07/03 14:15:52;;;;;;;2.03;1.00;;;28.80;44.60;;;;;;21002671;28;20654;-69
2022/07/03 14:25:54;;;;;;;1.10;0.90;;;28.80;44.10;;;;;;21001517;28;20230;-69
2022/07/03 14:35:56;;;;;;;3.72;1.00;;;29.10;43.50;;;;;;21000775;28;20214;-71
2022/07/03 14:46:04;;;;;;;1.17;1.00;;;29.30;43.20;;;;;;20999850;28;20326;-70
2022/07/03 14:56:06;;;;;;;0.90;0.90;;;29.10;42.90;;;;;;20999791;28;20218;-69
2022/07/03 15:06:10;;;;;;;3.53;1.00;;;29.50;42.50;;;;;;20999242;28;20242;-72
2022/07/03 15:16:12;;;;;;;2.05;1.00;;;29.50;42.40;;;;;;20997639;28;20200;-69
2022/07/03 15:26:14;;;;;;;4.18;1.60;;;29.50;42.10;;;;;;20996819;28;20231;-68
2022/07/03 15:36:18;;;;;;;3.03;2.00;;;29.90;41.70;;;;;;20996789;28;20585;-69
2022/07/03 15:46:39;;;;;;;3.45;2.20;;;29.60;41.80;;;;;;20995911;28;20247;-72
2022/07/03 15:56:45;;;;;;;2.50;1.80;;;29.60;41.50;;;;;;20996057;28;20227;-68
2022/07/03 16:06:48;;;;;;;4.38;1.70;;;30.00;41.20;;;;;;20996811;28;20238;-69
2022/07/03 16:16:50;;;;;;;2.28;1.60;;;30.40;40.30;;;;;;20995286;28;20206;-68
2022/07/03 16:26:54;;;;;;;1.15;0.90;;;31.60;39.10;;;;;;20994200;28;20231;-70
2022/07/03 16:36:58;;;;;;;1.02;0.90;;;31.00;39.10;;;;;;21009692;28;20203;-70
2022/07/03 16:47:02;;;;;;;1.20;1.10;;;30.10;39.50;;;;;;21008695;28;20243;-71
2022/07/03 16:57:05;;;;;;;10.63;1.35;;;29.50;40.90;;;;;;21014772;28;20249;-71
2022/07/03 17:07:10;;;;;;;2.10;1.10;;;29.20;42.50;;;;;;21008633;28;20238;-73
2022/07/03 17:17:15;;;;;;;4.78;1.08;;;29.10;42.30;;;;;;21082705;28;20207;-71
2022/07/03 17:27:24;;;;;;;2.80;0.90;;;29.10;43.20;;;;;;21008671;28;20258;-72
2022/07/03 17:37:26;;;;;;;1.27;1.00;;;29.50;42.70;;;;;;21005773;28;20199;-71
2022/07/03 17:47:29;;;;;;;3.55;1.00;;;29.10;42.40;;;;;;20998768;28;20250;-73
2022/07/03 17:57:37;;;;;;;1.58;1.05;;;29.00;42.40;;;;;;21003572;28;20685;-72
2022/07/03 18:08:04;;;;;;;0.90;0.90;;;28.80;43.50;;;;;;21024695;28;20245;-71
2022/07/03 18:18:33;;;;;;;1.20;1.00;;;28.50;43.30;;;;;;21082939;28;20209;-73
2022/07/03 18:28:38;;;;;;;1.42;1.27;;;28.10;44.00;;;;;;21073958;28;20593;-71
2022/07/03 18:38:41;;;;;;;1.38;1.10;;;27.90;44.90;;;;;;21082864;28;20208;-73
2022/07/03 18:48:43;;;;;;;2.70;1.10;;;27.60;45.50;;;;;;21080433;28;20647;-72
2022/07/03 18:59:00;;;;;;;2.33;1.30;;;27.30;46.10;;;;;;21034470;28;20494;-72
2022/07/03 19:09:07;;;;;;;1.53;1.20;;;27.60;47.10;;;;;;21076160;28;20689;-72
2022/07/03 19:19:11;;;;;;;1.77;1.30;;;27.00;47.60;;;;;;21078935;28;20571;-74
2022/07/03 19:29:13;;;;;;;2.60;1.50;;;26.70;47.80;;;;;;21078719;28;20656;-71
2022/07/03 19:39:14;;;;;;;2.37;1.30;;;26.50;48.70;;;;;;21077941;28;20563;-75
2022/07/03 19:49:16;;;;;;;8.40;1.70;;;26.10;50.10;;;;;;21077209;28;20238;-72
2022/07/03 19:59:18;;;;;;;2.70;2.37;;;25.80;51.00;;;;;;21077241;28;20567;-76
2022/07/03 20:09:22;;;;;;;4.20;2.20;;;25.60;51.90;;;;;;21095704;28;20237;-75
2022/07/03 20:19:24;;;;;;;2.63;2.23;;;25.40;53.20;;;;;;21104044;28;20206;-70
2022/07/03 20:29:26;;;;;;;6.03;3.80;;;25.20;53.60;;;;;;21103083;28;20234;-66
2022/07/03 20:39:29;;;;;;;2.90;1.70;;;25.00;53.80;;;;;;21102978;28;20297;-67
2022/07/03 20:49:31;;;;;;;6.30;2.33;;;24.80;53.90;;;;;;21103625;28;20589;-65
2022/07/03 20:59:33;;;;;;;3.80;2.03;;;24.70;54.40;;;;;;21102774;28;20194;-69
2022/07/03 21:09:35;;;;;;;2.77;1.63;;;24.60;54.90;;;;;;21104063;28;20303;-72
2022/07/03 21:19:37;;;;;;;3.50;2.10;;;24.40;55.50;;;;;;21109968;28;20214;-73
2022/07/03 21:29:38;;;;;;;2.17;1.70;;;24.20;56.80;;;;;;21112381;28;20238;-73
2022/07/03 21:39:41;;;;;;;4.27;1.67;;;24.00;57.20;;;;;;21088686;28;20707;-72
2022/07/03 21:49:43;;;;;;;8.40;1.87;;;23.70;58.40;;;;;;21085117;28;20234;-68
2022/07/03 21:59:44;;;;;;;5.03;1.50;;;23.40;59.70;;;;;;21072416;28;20211;-70
2022/07/03 22:09:46;;;;;;;3.83;1.70;;;23.20;60.10;;;;;;21013101;28;20238;-72
2022/07/03 22:19:48;;;;;;;2.03;1.40;;;23.00;60.70;;;;;;21024493;28;20692;-73
2022/07/03 22:29:50;;;;;;;7.20;2.27;;;22.80;62.10;;;;;;20998815;28;20238;-69
2022/07/03 22:39:52;;;;;;;2.70;1.67;;;22.70;63.10;;;;;;21007060;28;20306;-74
2022/07/03 22:49:54;;;;;;;3.27;1.60;;;22.60;63.80;;;;;;20999973;28;20246;-74
2022/07/03 22:59:55;;;;;;;3.00;1.80;;;22.40;65.00;;;;;;20999547;28;20203;-74
2022/07/03 23:09:57;;;;;;;5.30;1.77;;;22.30;65.90;;;;;;20997888;28;20306;-73
2022/07/03 23:19:59;;;;;;;4.13;1.53;;;22.30;65.40;;;;;;20997561;28;20199;-72
2022/07/03 23:30:01;;;;;;;2.83;1.67;;;22.20;64.10;;;;;;20996784;28;20258;-68
2022/07/03 23:40:03;;;;;;;7.70;1.60;;;22.20;63.90;;;;;;20995847;28;20318;-70
